Time;durP1;ratioP1;P1;durP2;ratioP2;P2;SDS_P1;SDS_P2;PMS_P1;PMS_P2;Temp;Humidity;BMP_temperature;BMP_pressure;BME280_temperature;BME280_humidity;BME280_pressure;Samples;Min_cycle;Max_cycle;Signal;HPM_P1;HPM_P2
2022/11/17 00:00:25;;;;;;;111.20;51.85;;;;;;;12.28;96.20;98764.03;5100315;28;20039;-72
2022/11/17 00:02:51;;;;;;;99.82;50.03;;;;;;;12.14;95.89;98760.50;5101127;28;20040;-72
2022/11/17 00:05:16;;;;;;;101.35;52.10;;;;;;;12.24;96.26;98769.94;5099919;28;20090;-72
2022/11/17 00:07:47;;;;;;;100.72;49.38;;;;;;;12.38;95.47;98763.69;5101358;28;20047;-72
2022/11/17 00:10:14;;;;;;;102.47;50.00;;;;;;;12.35;94.29;98753.47;5100709;28;20087;-71
2022/11/17 00:15:24;;;;;;;114.35;52.58;;;;;;;12.19;95.57;98751.13;5099212;28;20063;-72
2022/11/17 00:21:17;;;;;;;106.40;52.88;;;;;;;12.12;96.50;98759.88;5101194;28;20028;-72
2022/11/17 00:23:25;;;;;;;101.55;52.60;;;;;;;12.21;96.58;98762.38;5100912;28;20568;-72
2022/11/17 00:25:50;;;;;;;105.35;52.45;;;;;;;12.25;95.37;98747.69;5099762;28;20028;-71
2022/11/17 00:28:16;;;;;;;107.55;52.58;;;;;;;12.39;94.41;98746.75;5099322;28;20027;-72
2022/11/17 00:36:09;;;;;;;105.15;51.20;;;;;;;12.01;96.74;98733.91;5100457;28;20031;-72
2022/11/17 00:38:34;;;;;;;110.50;53.22;;;;;;;12.05;96.54;98739.63;5100654;28;20036;-72
2022/11/17 00:40:59;;;;;;;105.68;51.88;;;;;;;11.93;97.13;98743.84;5102963;28;20333;-72
2022/11/17 00:43:25;;;;;;;100.50;51.25;;;;;;;11.95;97.07;98747.13;5101481;28;20046;-72
2022/11/17 00:45:50;;;;;;;101.13;49.22;;;;;;;11.93;97.21;98744.66;5100944;28;20269;-72
2022/11/17 00:48:15;;;;;;;96.95;50.88;;;;;;;12.06;97.21;98743.91;5102738;28;20031;-72
2022/11/17 00:50:41;;;;;;;101.25;51.40;;;;;;;11.96;97.35;98749.59;5100770;28;20027;-72
2022/11/17 00:53:06;;;;;;;98.47;49.25;;;;;;;11.92;97.79;98750.16;5099962;28;20048;-72
2022/11/17 00:55:32;;;;;;;95.85;49.33;;;;;;;12.06;97.37;98743.91;5099301;28;20193;-72
2022/11/17 00:57:57;;;;;;;105.43;49.20;;;;;;;12.06;97.27;98744.75;5100130;28;20084;-71
2022/11/17 01:00:22;;;;;;;97.25;48.50;;;;;;;12.00;97.89;98750.84;5098798;28;20091;-71
2022/11/17 01:02:48;;;;;;;97.70;49.92;;;;;;;12.05;98.10;98747.59;5100128;28;20046;-72
2022/11/17 01:05:13;;;;;;;94.35;50.13;;;;;;;12.15;97.72;98740.09;5098734;28;20118;-72
2022/11/17 01:07:39;;;;;;;99.75;50.65;;;;;;;12.22;97.39;98738.28;5098038;28;20349;-72
2022/11/17 01:10:05;;;;;;;91.28;48.78;;;;;;;12.19;96.71;98751.13;5099881;28;20027;-72
2022/11/17 01:12:30;;;;;;;89.35;48.67;;;;;;;12.31;95.83;98749.56;5099845;28;20065;-72
2022/11/17 01:14:55;;;;;;;94.75;48.45;;;;;;;12.40;94.56;98735.91;5098764;28;20069;-72
2022/11/17 01:17:21;;;;;;;90.60;48.08;;;;;;;12.42;94.70;98735.72;5100057;28;20322;-72
2022/11/17 01:19:48;;;;;;;96.63;47.25;;;;;;;12.46;94.18;98731.66;5098480;28;20032;-72
2022/11/17 01:22:13;;;;;;;90.78;46.42;;;;;;;12.54;93.61;98720.88;5098543;28;20040;-72
2022/11/17 01:24:38;;;;;;;89.47;47.50;;;;;;;12.60;93.87;98720.09;5099375;28;20385;-72
2022/11/17 01:27:04;;;;;;;121.05;53.05;;;;;;;12.57;94.66;98720.50;5097363;28;20043;-72
2022/11/17 01:29:29;;;;;;;453.90;125.18;;;;;;;12.59;94.31;98714.97;5100063;28;20023;-72
2022/11/17 01:31:54;;;;;;;393.92;109.03;;;;;;;12.61;94.20;98700.47;5101810;28;20024;-72
2022/11/17 01:34:20;;;;;;;231.35;73.82;;;;;;;12.71;92.94;98698.25;5099826;28;20059;-72
2022/11/17 01:39:31;;;;;;;202.18;66.85;;;;;;;12.72;92.60;98691.94;5099812;28;20243;-72
2022/11/17 01:41:57;;;;;;;133.30;55.72;;;;;;;12.67;92.92;98694.38;5100185;28;20337;-72
2022/11/17 01:44:40;;;;;;;136.45;55.45;;;;;;;12.67;93.65;98705.00;5099852;28;20039;-72
2022/11/17 01:47:43;;;;;;;119.30;53.17;;;;;;;12.70;93.83;98688.66;5097387;28;20087;-72
2022/11/17 01:50:34;;;;;;;110.07;51.83;;;;;;;12.69;93.37;98688.84;5090773;28;20071;-72
2022/11/17 01:53:06;;;;;;;110.78;53.60;;;;;;;12.36;95.50;98691.38;5101035;28;20042;-72
2022/11/17 01:55:40;;;;;;;109.13;51.35;;;;;;;12.46;95.45;98700.59;5100226;28;20213;-72
2022/11/17 01:58:23;;;;;;;91.57;47.08;;;;;;;12.45;95.20;98684.88;5081873;28;20344;-72
2022/11/17 02:00:48;;;;;;;96.00;47.83;;;;;;;12.44;95.45;98700.00;5083183;28;20055;-72
2022/11/17 02:03:14;;;;;;;95.75;48.97;;;;;;;12.41;96.13;98700.38;5098334;28;20035;-72
2022/11/17 02:06:01;;;;;;;85.90;46.83;;;;;;;12.55;95.72;98703.94;5098989;28;20027;-72
2022/11/17 02:08:29;;;;;;;86.35;45.58;;;;;;;12.48;95.47;98697.75;5098145;28;20224;-72
2022/11/17 02:10:55;;;;;;;87.70;46.28;;;;;;;12.36;97.25;98692.22;5098454;28;20243;-72
2022/11/17 02:13:21;;;;;;;89.03;45.85;;;;;;;12.44;97.20;98672.63;5098733;28;20067;-72
2022/11/17 02:15:47;;;;;;;87.15;44.95;;;;;;;12.56;96.40;98673.72;5098354;28;20332;-72
2022/11/17 02:18:15;;;;;;;86.53;46.13;;;;;;;12.44;96.59;98678.75;5098862;28;20028;-72
2022/11/17 02:20:40;;;;;;;90.10;47.10;;;;;;;12.53;96.99;98683.91;5098742;28;20206;-72
2022/11/17 02:23:11;;;;;;;84.60;45.40;;;;;;;12.53;96.50;98686.56;5100734;28;20307;-72
2022/11/17 02:26:09;;;;;;;83.10;45.50;;;;;;;12.59;97.17;98681.28;5098723;28;20020;-72
2022/11/17 02:29:03;;;;;;;92.55;46.08;;;;;;;12.67;95.57;98678.44;5082707;28;20032;-72
2022/11/17 02:31:34;;;;;;;89.43;46.47;;;;;;;12.52;96.29;98666.34;5098824;28;20048;-72
2022/11/17 02:34:30;;;;;;;90.70;46.83;;;;;;;12.67;96.38;98670.47;5100573;28;20281;-72
2022/11/17 02:37:01;;;;;;;87.00;46.50;;;;;;;12.56;96.10;98663.09;5096976;28;20028;-72
2022/11/17 02:39:39;;;;;;;84.82;43.92;;;;;;;12.60;96.60;98674.94;5103949;28;20091;-72
2022/11/17 02:44:02;;;;;;;85.22;46.03;;;;;;;12.66;96.27;98674.13;5103172;28;20034;-72
2022/11/17 02:45:15;;;;;;;87.13;46.67;;;;;;;12.71;94.82;98677.00;5102302;28;20073;-72
2022/11/17 02:47:42;;;;;;;86.55;47.13;;;;;;;12.38;96.20;98670.78;5101662;28;20040;-72
2022/11/17 02:50:10;;;;;;;99.82;48.58;;;;;;;12.54;95.31;98665.13;5101598;28;20051;-72
2022/11/17 02:52:35;;;;;;;89.00;47.25;;;;;;;12.51;96.48;98668.19;5102019;28;20040;-72
2022/11/17 02:55:04;;;;;;;88.53;46.60;;;;;;;12.55;95.59;98656.13;5101060;28;20065;-72
2022/11/17 02:57:38;;;;;;;90.97;47.80;;;;;;;12.39;96.55;98657.28;5098422;28;20028;-72
2022/11/17 03:00:07;;;;;;;89.03;46.17;;;;;;;12.46;96.31;98654.66;5102225;28;20047;-72
2022/11/17 03:02:35;;;;;;;93.43;48.47;;;;;;;12.46;95.97;98652.81;5101009;28;21249;-72
2022/11/17 03:05:10;;;;;;;166.98;67.50;;;;;;;12.54;95.45;98649.19;5102228;28;20028;-72
2022/11/17 03:07:50;;;;;;;104.15;51.85;;;;;;;12.54;95.16;98646.53;5102544;28;20036;-72
2022/11/17 03:10:57;;;;;;;120.63;55.63;;;;;;;12.62;94.98;98635.72;5101633;28;20086;-72
2022/11/17 03:13:25;;;;;;;93.47;47.47;;;;;;;12.60;94.97;98634.28;5100603;28;20059;-72
2022/11/17 03:16:08;;;;;;;85.70;46.45;;;;;;;12.61;94.21;98634.09;5102479;28;20274;-72
2022/11/17 03:18:42;;;;;;;83.15;44.05;;;;;;;12.60;94.04;98643.06;5103563;28;20028;-72
2022/11/17 03:21:37;;;;;;;86.25;44.50;;;;;;;12.62;94.02;98642.88;5101876;28;20052;-72
2022/11/17 03:24:07;;;;;;;359.40;118.75;;;;;;;12.59;94.26;98652.06;5097284;28;20068;-72
2022/11/17 03:26:37;;;;;;;286.35;100.63;;;;;;;12.62;93.47;98661.47;5101011;28;20040;-72
2022/11/17 03:29:08;;;;;;;327.63;118.97;;;;;;;12.60;93.85;98650.22;5102241;28;20028;-72
2022/11/17 03:31:36;;;;;;;310.38;118.78;;;;;;;12.53;94.05;98636.94;5103917;28;20043;-72
2022/11/17 03:34:06;;;;;;;278.50;113.25;;;;;;;12.57;93.98;98632.03;5101664;28;20036;-72
2022/11/17 03:36:36;;;;;;;222.32;91.22;;;;;;;12.56;93.87;98647.16;5101280;28;20032;-72
2022/11/17 03:39:30;;;;;;;167.20;74.32;;;;;;;12.60;93.76;98653.69;5100233;28;20024;-72
2022/11/17 03:42:01;;;;;;;127.43;59.88;;;;;;;12.57;93.41;98659.41;5098371;28;20201;-72
2022/11/17 03:44:31;;;;;;;108.80;53.00;;;;;;;12.49;93.56;98656.94;5100889;28;20761;-72
2022/11/17 03:47:00;;;;;;;90.63;47.92;;;;;;;12.43;94.18;98655.06;5100626;28;20035;-72
2022/11/17 03:49:42;;;;;;;84.53;45.03;;;;;;;12.47;93.31;98648.31;5101050;28;20550;-72
2022/11/17 03:52:07;;;;;;;88.60;45.25;;;;;;;12.45;93.21;98658.34;5101011;28;20352;-72
2022/11/17 03:54:35;;;;;;;86.75;44.92;;;;;;;12.28;95.12;98652.56;5100689;28;20028;-72
2022/11/17 03:57:11;;;;;;;85.53;44.83;;;;;;;12.34;94.97;98638.50;5100164;28;20043;-72
2022/11/17 03:59:46;;;;;;;79.03;42.13;;;;;;;12.39;94.39;98644.03;5097820;28;20043;-72
2022/11/17 04:02:23;;;;;;;89.55;45.17;;;;;;;12.33;95.24;98650.13;5101327;28;20044;-72
2022/11/17 04:05:06;;;;;;;106.13;51.63;;;;;;;12.28;95.61;98655.22;5101099;28;20032;-72
2022/11/17 04:07:33;;;;;;;89.82;44.92;;;;;;;12.15;96.52;98652.53;5102568;28;20088;-72
2022/11/17 04:09:59;;;;;;;91.82;44.20;;;;;;;12.26;96.50;98641.34;5102588;28;20040;-72
2022/11/17 04:17:54;;;;;;;77.15;42.25;;;;;;;12.24;95.83;98624.78;5100899;28;20092;-72
2022/11/17 04:20:19;;;;;;;83.38;43.58;;;;;;;12.19;96.70;98615.78;5102672;28;20032;-72
2022/11/17 04:22:45;;;;;;;79.50;42.42;;;;;;;12.21;96.35;98609.25;5102664;28;20059;-72
2022/11/17 04:28:35;;;;;;;74.82;41.90;;;;;;;12.32;94.82;98623.78;5098864;28;20035;-72
2022/11/17 04:30:39;;;;;;;75.40;43.00;;;;;;;12.26;95.03;98613.97;5100653;28;20023;-72
2022/11/17 04:33:05;;;;;;;79.47;41.42;;;;;;;12.34;94.92;98614.59;5100183;28;20040;-72
2022/11/17 04:35:30;;;;;;;83.65;42.78;;;;;;;12.31;94.57;98607.03;5101601;28;20090;-72
2022/11/17 04:37:55;;;;;;;78.45;45.33;;;;;;;12.36;94.53;98622.38;5102869;28;20072;-72
2022/11/17 04:40:21;;;;;;;80.05;43.08;;;;;;;12.35;95.74;98623.38;5101496;28;20092;-72
2022/11/17 04:42:46;;;;;;;91.20;46.28;;;;;;;12.39;95.17;98611.34;5103536;28;20336;-72
2022/11/17 04:45:12;;;;;;;85.50;44.03;;;;;;;12.29;94.64;98601.13;5100471;28;20024;-72
2022/11/17 04:47:37;;;;;;;79.03;43.63;;;;;;;12.39;94.80;98603.38;5097866;28;20329;-72
2022/11/17 04:50:02;;;;;;;74.10;40.30;;;;;;;12.38;93.98;98589.28;5101573;28;20019;-72
2022/11/17 04:52:28;;;;;;;74.18;37.38;;;;;;;12.37;93.16;98592.16;5102195;28;20032;-72
2022/11/17 04:54:53;;;;;;;73.75;40.95;;;;;;;12.13;94.15;98594.34;5100002;28;20036;-72
2022/11/17 04:57:19;;;;;;;77.72;40.95;;;;;;;12.05;95.27;98583.09;5100463;28;20083;-72
2022/11/17 04:59:44;;;;;;;77.13;41.50;;;;;;;11.98;95.12;98569.81;5098648;28;20028;-72
2022/11/17 05:02:09;;;;;;;70.43;37.85;;;;;;;12.13;94.57;98574.94;5099009;28;20028;-72
2022/11/17 05:07:18;;;;;;;73.72;40.25;;;;;;;12.07;95.48;98567.78;5102323;28;20047;-72
2022/11/17 05:09:44;;;;;;;72.20;39.00;;;;;;;12.13;95.09;98567.81;5099689;28;20314;-72
2022/11/17 05:17:03;;;;;;;79.82;42.10;;;;;;;12.11;94.24;98564.53;5036681;28;20029;-72
2022/11/17 05:18:00;;;;;;;75.32;40.30;;;;;;;12.11;94.91;98584.94;5037301;28;20385;-72
2022/11/17 05:20:25;;;;;;;78.05;41.17;;;;;;;12.09;95.53;98593.09;5073929;28;20099;-72
2022/11/17 05:25:34;;;;;;;79.40;42.83;;;;;;;12.15;94.12;98571.06;5099217;28;20043;-72
2022/11/17 05:27:59;;;;;;;77.32;40.80;;;;;;;12.12;94.01;98576.78;5098706;28;20550;-72
2022/11/17 05:30:25;;;;;;;77.40;40.92;;;;;;;12.02;94.35;98570.22;5098772;28;20018;-71
2022/11/17 05:32:50;;;;;;;75.47;40.95;;;;;;;11.96;95.42;98582.44;5098531;28;20256;-71
2022/11/17 05:35:16;;;;;;;74.18;40.38;;;;;;;12.01;96.14;98579.19;5097857;28;20095;-72
2022/11/17 05:37:41;;;;;;;76.05;40.83;;;;;;;12.12;96.08;98579.44;5099568;28;20072;-72
2022/11/17 05:40:07;;;;;;;75.22;42.65;;;;;;;12.16;95.88;98585.16;5098629;28;20035;-72
2022/11/17 05:42:34;;;;;;;78.93;42.78;;;;;;;11.95;96.24;98572.84;5098695;28;20081;-72
2022/11/17 05:45:00;;;;;;;81.43;44.38;;;;;;;11.92;96.94;98575.91;5097828;28;20016;-72
2022/11/17 05:47:25;;;;;;;78.95;43.25;;;;;;;12.10;96.84;98599.22;5098426;28;20044;-71
2022/11/17 05:49:50;;;;;;;85.32;44.53;;;;;;;12.00;96.55;98606.75;5099857;28;20293;-71
2022/11/17 05:52:16;;;;;;;79.20;42.90;;;;;;;12.12;96.69;98597.19;5101474;28;20341;-72
2022/11/17 05:54:41;;;;;;;99.30;48.35;;;;;;;12.20;97.11;98601.50;5099835;28;20143;-72
2022/11/17 05:57:24;;;;;;;100.18;48.70;;;;;;;12.23;96.62;98598.44;5102368;28;20237;-71
2022/11/17 05:59:55;;;;;;;83.03;45.05;;;;;;;12.13;97.24;98604.13;5099609;28;20031;-71
2022/11/17 06:02:26;;;;;;;79.30;43.63;;;;;;;12.14;97.27;98605.78;5099011;28;20032;-72
2022/11/17 06:04:51;;;;;;;83.30;43.97;;;;;;;12.19;96.86;98610.47;5096346;28;20376;-72
2022/11/17 06:07:18;;;;;;;82.20;45.30;;;;;;;12.06;97.31;98603.31;5101424;28;20092;-71
2022/11/17 06:09:45;;;;;;;81.60;44.95;;;;;;;11.92;98.47;98606.91;5099833;28;20036;-71
2022/11/17 06:12:10;;;;;;;82.35;46.25;;;;;;;11.92;98.00;98613.03;5100200;28;20091;-72
2022/11/17 06:14:38;;;;;;;89.10;47.58;;;;;;;11.84;98.08;98599.94;5100322;28;20137;-72
2022/11/17 06:17:15;;;;;;;91.85;47.47;;;;;;;11.96;97.87;98611.63;5102895;28;20043;-72
2022/11/17 06:19:45;;;;;;;105.22;49.47;;;;;;;11.98;99.01;98614.09;5102339;28;20028;-71
2022/11/17 06:22:11;;;;;;;92.53;48.45;;;;;;;12.18;98.20;98609.66;5102318;28;20614;-71
2022/11/17 06:24:37;;;;;;;89.40;48.28;;;;;;;12.31;96.83;98609.69;5102153;28;20032;-72
2022/11/17 06:27:04;;;;;;;100.13;50.40;;;;;;;12.32;97.02;98611.34;5102152;28;20043;-72
2022/11/17 06:29:30;;;;;;;98.63;50.58;;;;;;;12.38;97.57;98612.38;5101109;28;20031;-72
2022/11/17 06:31:57;;;;;;;105.38;51.40;;;;;;;12.43;97.14;98610.75;5102351;28;20024;-72
2022/11/17 06:34:24;;;;;;;103.30;52.42;;;;;;;12.34;97.52;98619.09;5102113;28;20040;-72
2022/11/17 06:36:50;;;;;;;101.47;52.25;;;;;;;12.43;97.13;98613.41;5102536;28;20431;-72
2022/11/17 06:39:15;;;;;;;96.30;50.35;;;;;;;12.58;96.40;98615.09;5102202;28;20091;-71
2022/11/17 06:41:40;;;;;;;97.47;50.58;;;;;;;12.57;96.44;98613.44;5102397;28;20101;-72
2022/11/17 06:44:06;;;;;;;105.03;52.10;;;;;;;12.69;96.37;98620.63;5102090;28;20075;-72
2022/11/17 06:46:36;;;;;;;94.68;51.00;;;;;;;12.61;96.78;98620.00;5102301;28;20036;-72
2022/11/17 06:49:06;;;;;;;103.65;52.88;;;;;;;12.51;97.19;98608.94;5101994;28;20056;-72
2022/11/17 06:51:35;;;;;;;99.43;51.88;;;;;;;12.55;97.30;98602.22;5102236;28;20103;-72
2022/11/17 06:54:02;;;;;;;97.53;52.33;;;;;;;12.57;97.67;98616.94;5101734;28;20087;-72
2022/11/17 06:56:28;;;;;;;100.47;51.78;;;;;;;12.67;97.12;98598.75;5088153;28;20036;-72
2022/11/17 06:58:54;;;;;;;95.82;50.13;;;;;;;12.75;96.67;98603.88;5102165;28;20036;-72
2022/11/17 07:01:20;;;;;;;95.93;51.15;;;;;;;12.81;96.22;98596.09;5101962;28;20032;-72
2022/11/17 07:03:45;;;;;;;107.38;54.13;;;;;;;12.77;95.48;98572.59;5102265;28;20375;-72
2022/11/17 07:06:11;;;;;;;104.18;52.75;;;;;;;12.60;96.38;98562.59;5098333;28;20103;-72
2022/11/17 07:08:38;;;;;;;111.13;51.80;;;;;;;12.41;97.70;98562.34;5097474;28;20047;-72
2022/11/17 07:11:08;;;;;;;105.43;54.03;;;;;;;12.27;98.95;98559.88;5097743;28;20016;-72
2022/11/17 07:13:34;;;;;;;111.13;54.28;;;;;;;12.28;99.29;98558.84;5098262;28;20095;-72
2022/11/17 07:16:09;;;;;;;110.25;54.20;;;;;;;12.25;100.00;98559.25;5097631;28;20031;-72
2022/11/17 07:18:35;;;;;;;110.60;55.60;;;;;;;12.35;100.00;98549.88;5095139;28;20020;-72
2022/11/17 07:21:06;;;;;;;100.43;52.75;;;;;;;12.45;100.00;98552.94;5094434;28;20040;-72
2022/11/17 07:23:33;;;;;;;105.53;53.78;;;;;;;12.45;99.64;98554.78;5094062;28;20056;-72
2022/11/17 07:25:59;;;;;;;113.97;54.58;;;;;;;12.55;99.55;98559.72;5096676;28;20095;-72
2022/11/17 07:28:26;;;;;;;111.55;54.58;;;;;;;12.53;99.61;98553.81;5095646;28;20032;-72
2022/11/17 07:30:52;;;;;;;99.28;52.97;;;;;;;12.72;98.95;98561.78;5097268;28;20103;-72
2022/11/17 07:33:17;;;;;;;109.03;54.33;;;;;;;12.71;98.82;98562.81;5097461;28;20052;-71
2022/11/17 07:35:43;;;;;;;108.82;55.17;;;;;;;12.73;99.20;98568.72;5096307;28;20024;-72
2022/11/17 07:38:08;;;;;;;105.75;53.80;;;;;;;12.71;99.16;98572.59;5096500;28;20036;-72
2022/11/17 07:40:34;;;;;;;102.10;55.28;;;;;;;12.76;100.00;98570.16;5098243;28;20027;-72
2022/11/17 07:43:00;;;;;;;122.75;60.47;;;;;;;12.76;99.37;98576.28;5099281;28;20387;-72
2022/11/17 07:45:27;;;;;;;113.68;59.92;;;;;;;12.78;99.30;98587.53;5090124;28;20032;-72
2022/11/17 07:47:56;;;;;;;106.35;56.10;;;;;;;12.79;99.35;98577.72;5094906;28;20036;-72
2022/11/17 07:50:23;;;;;;;113.68;58.85;;;;;;;12.83;98.49;98594.88;5094297;28;20305;-72
2022/11/17 07:52:50;;;;;;;116.55;58.60;;;;;;;12.87;99.45;98603.25;5088626;28;20043;-72
2022/11/17 07:55:16;;;;;;;121.38;63.05;;;;;;;12.83;99.69;98588.75;5095615;28;20320;-72
2022/11/17 07:57:41;;;;;;;117.78;59.33;;;;;;;12.85;99.78;98582.22;5095924;28;20036;-72
2022/11/17 08:00:07;;;;;;;128.98;63.55;;;;;;;12.98;99.52;98595.50;5091661;28;20107;-72
2022/11/17 08:02:32;;;;;;;300.52;109.88;;;;;;;13.03;98.68;98578.94;5099417;28;20028;-72
2022/11/17 08:04:58;;;;;;;162.10;73.95;;;;;;;13.11;98.19;98587.50;5092669;28;20031;-72
2022/11/17 08:07:23;;;;;;;246.27;93.32;;;;;;;13.14;98.44;98575.66;5092662;28;20020;-72
2022/11/17 08:09:49;;;;;;;166.55;74.78;;;;;;;13.19;98.38;98585.69;5098241;28;20341;-72
2022/11/17 08:12:14;;;;;;;129.98;64.78;;;;;;;13.21;98.66;98584.47;5090862;28;20032;-72
2022/11/17 08:14:39;;;;;;;123.35;66.00;;;;;;;13.15;99.31;98600.38;5093517;28;20032;-72
2022/11/17 08:17:05;;;;;;;117.03;62.88;;;;;;;13.03;100.00;98608.97;5093698;28;20028;-72
2022/11/17 08:19:30;;;;;;;114.28;61.58;;;;;;;13.07;100.00;98620.81;5094640;28;20032;-72
2022/11/17 08:21:56;;;;;;;126.95;69.88;;;;;;;13.04;100.00;98617.75;5095704;28;20094;-72
2022/11/17 08:24:21;;;;;;;126.07;64.93;;;;;;;13.18;100.00;98622.06;5093326;28;20024;-72
2022/11/17 08:26:46;;;;;;;134.05;69.35;;;;;;;12.90;100.00;98608.97;5099574;28;20028;-72
2022/11/17 08:29:12;;;;;;;114.88;64.15;;;;;;;13.08;100.00;98632.28;5089543;28;20032;-72
2022/11/17 08:31:37;;;;;;;129.43;66.53;;;;;;;13.06;100.00;98624.50;5091240;28;20107;-72
2022/11/17 08:34:03;;;;;;;110.82;58.30;;;;;;;12.95;100.00;98624.31;5097752;28;20145;-72
2022/11/17 08:36:28;;;;;;;101.30;55.88;;;;;;;13.06;100.00;98648.44;5088334;28;20024;-72
2022/11/17 08:38:53;;;;;;;111.55;57.63;;;;;;;13.09;100.00;98642.72;5093276;28;20272;-72
2022/11/17 08:41:20;;;;;;;108.93;59.95;;;;;;;12.87;100.00;98643.94;5095101;28;20123;-72
2022/11/17 08:43:46;;;;;;;119.13;63.47;;;;;;;12.83;100.00;98653.31;5090489;28;20305;-72
2022/11/17 08:46:12;;;;;;;124.70;65.82;;;;;;;12.65;100.00;98666.38;5095610;28;20106;-72
2022/11/17 08:48:38;;;;;;;122.10;67.35;;;;;;;12.22;100.00;98677.25;5097782;28;20095;-72
2022/11/17 08:51:05;;;;;;;107.25;57.42;;;;;;;11.93;100.00;98698.75;5093456;28;20023;-72
2022/11/17 08:53:30;;;;;;;114.45;59.40;;;;;;;11.61;100.00;98705.47;5093959;28;20069;-72
2022/11/17 08:55:56;;;;;;;121.90;62.85;;;;;;;11.31;100.00;98704.81;5098314;28;20240;-72
2022/11/17 08:58:21;;;;;;;117.25;66.20;;;;;;;11.47;100.00;98721.28;5092729;28;20042;-72
2022/11/17 09:00:47;;;;;;;106.22;59.67;;;;;;;11.58;100.00;98733.19;5090667;28;20095;-72
2022/11/17 09:03:12;;;;;;;110.88;60.47;;;;;;;11.61;100.00;98740.75;5088749;28;20385;-72
2022/11/17 09:05:40;;;;;;;101.22;57.47;;;;;;;11.57;100.00;98750.09;5091020;28;20040;-71
2022/11/17 09:08:06;;;;;;;109.35;57.38;;;;;;;11.32;100.00;98754.16;5098122;28;20329;-72
2022/11/17 09:10:32;;;;;;;105.53;57.90;;;;;;;11.56;100.00;98751.13;5098024;28;20426;-72
2022/11/17 09:12:58;;;;;;;105.13;55.88;;;;;;;11.59;100.00;98745.44;5097421;28;20028;-72
2022/11/17 09:15:23;;;;;;;99.10;53.08;;;;;;;11.81;100.00;98739.09;5093685;28;20066;-72
2022/11/17 09:17:50;;;;;;;105.63;52.42;;;;;;;11.91;100.00;98735.25;5092570;28;20099;-72
2022/11/17 09:20:16;;;;;;;100.45;52.85;;;;;;;12.11;100.00;98736.19;5088292;28;20032;-72
2022/11/17 09:22:42;;;;;;;109.10;55.17;;;;;;;12.06;100.00;98739.44;5087090;28;20036;-72
2022/11/17 09:25:08;;;;;;;102.18;55.25;;;;;;;12.21;100.00;98733.19;5101206;28;20046;-72
2022/11/17 09:27:33;;;;;;;108.15;54.97;;;;;;;12.44;100.00;98723.06;5081713;28;20051;-72
2022/11/17 09:29:59;;;;;;;111.43;56.15;;;;;;;12.38;100.00;98710.59;5082047;28;20036;-72
2022/11/17 09:32:25;;;;;;;114.28;59.38;;;;;;;12.52;100.00;98717.63;5084003;28;20040;-72
2022/11/17 09:34:51;;;;;;;113.13;58.88;;;;;;;12.47;100.00;98704.91;5084448;28;20035;-72
2022/11/17 09:37:16;;;;;;;111.90;56.88;;;;;;;12.55;100.00;98695.97;5084393;28;20036;-72
2022/11/17 09:39:41;;;;;;;114.05;57.88;;;;;;;12.44;100.00;98670.78;5083134;28;20232;-72
2022/11/17 09:42:13;;;;;;;113.80;57.15;;;;;;;12.44;100.00;98659.34;5101645;28;20046;-72
2022/11/17 09:44:51;;;;;;;113.32;55.85;;;;;;;12.52;100.00;98642.44;5083285;28;20029;-72
2022/11/17 09:47:41;;;;;;;127.45;62.92;;;;;;;12.74;100.00;98617.34;5100193;28;20024;-72
2022/11/17 09:50:30;;;;;;;120.70;60.58;;;;;;;12.70;100.00;98593.03;5082771;28;20026;-72
2022/11/17 09:53:27;;;;;;;112.75;55.97;;;;;;;12.60;100.00;98558.09;5085269;28;20095;-72
2022/11/17 09:56:01;;;;;;;103.88;52.45;;;;;;;12.55;100.00;98544.63;5082711;28;20074;-72
2022/11/17 09:58:45;;;;;;;102.43;51.83;;;;;;;12.66;100.00;98569.75;5101426;28;20256;-72
2022/11/17 10:01:15;;;;;;;106.85;53.55;;;;;;;12.37;100.00;98602.78;5102232;28;20035;-72
2022/11/17 10:03:46;;;;;;;103.55;54.38;;;;;;;12.62;100.00;98611.00;5100944;28;20266;-72
2022/11/17 10:06:23;;;;;;;110.13;55.90;;;;;;;12.69;100.00;98628.59;5086737;28;20294;-72
2022/11/17 10:09:20;;;;;;;111.20;54.17;;;;;;;12.78;100.00;98616.75;5100972;28;20056;-72
2022/11/17 10:11:46;;;;;;;104.30;53.50;;;;;;;13.00;100.00;98606.72;5066767;28;20048;-72
2022/11/17 10:14:14;;;;;;;109.50;56.97;;;;;;;13.00;100.00;98603.25;5101471;28;20103;-72
2022/11/17 10:16:44;;;;;;;110.35;57.65;;;;;;;13.22;100.00;98594.06;5101344;28;20040;-72
2022/11/17 10:19:20;;;;;;;129.07;64.40;;;;;;;13.06;100.00;98589.16;5101381;28;20034;-72
2022/11/17 10:21:50;;;;;;;111.65;57.38;;;;;;;13.41;100.00;98593.22;5101360;28;20031;-72
2022/11/17 10:24:41;;;;;;;97.72;52.65;;;;;;;13.18;100.00;98587.53;5101083;28;20328;-72
2022/11/17 10:27:16;;;;;;;103.07;55.42;;;;;;;13.38;100.00;98588.31;5096915;28;20048;-72
2022/11/17 10:30:01;;;;;;;99.32;50.78;;;;;;;13.70;100.00;98588.44;5101394;28;20055;-72
2022/11/17 10:32:30;;;;;;;92.35;47.33;;;;;;;13.91;100.00;98566.06;5083973;28;20039;-72
2022/11/17 10:34:55;;;;;;;84.82;45.22;;;;;;;14.04;100.00;98560.66;5101472;28;20039;-72
2022/11/17 10:37:26;;;;;;;83.57;44.92;;;;;;;14.17;100.00;98570.44;5101475;28;20044;-71
2022/11/17 10:40:13;;;;;;;84.53;45.22;;;;;;;13.77;100.00;98553.84;5101046;28;20020;-72
2022/11/17 10:42:42;;;;;;;95.10;47.80;;;;;;;13.93;100.00;98556.84;5099849;28;20027;-72
2022/11/17 10:45:16;;;;;;;94.88;48.38;;;;;;;13.76;100.00;98562.84;5101467;28;20038;-72
2022/11/17 10:47:42;;;;;;;;;;;;;;;13.78;100.00;98550.97;5081519;28;20052;-72
2022/11/17 10:50:18;;;;;;;92.68;47.60;;;;;;;13.93;100.00;98561.34;5099635;28;20146;-72
2022/11/17 10:52:44;;;;;;;91.53;49.40;;;;;;;13.99;100.00;98563.97;5083505;28;20065;-72
2022/11/17 10:55:26;;;;;;;96.35;50.38;;;;;;;13.65;100.00;98517.25;5083092;28;20412;-72
2022/11/17 10:58:03;;;;;;;94.70;48.60;;;;;;;14.21;100.00;98560.97;5085979;28;20317;-72
2022/11/17 11:00:34;;;;;;;88.38;46.42;;;;;;;14.53;100.00;98575.97;5088405;28;20028;-72
2022/11/17 11:03:18;;;;;;;90.28;47.38;;;;;;;14.32;100.00;98565.63;5090941;28;20088;-72
2022/11/17 11:06:05;;;;;;;94.80;50.28;;;;;;;14.22;100.00;98568.75;5095311;28;20020;-72
2022/11/17 11:08:50;;;;;;;88.05;48.03;;;;;;;14.23;100.00;98564.25;5087969;28;20024;-72
2022/11/17 11:11:43;;;;;;;95.22;48.15;;;;;;;14.34;100.00;98561.72;5088831;28;20093;-71
2022/11/17 11:14:17;;;;;;;89.00;48.53;;;;;;;14.34;100.00;98569.69;5088182;28;20363;-72
2022/11/17 11:16:46;;;;;;;91.15;47.35;;;;;;;14.14;100.00;98571.66;5094158;28;20381;-72
2022/11/17 11:19:14;;;;;;;84.30;47.53;;;;;;;14.07;100.00;98545.09;5091744;28;20325;-72
2022/11/17 11:22:01;;;;;;;87.93;46.92;;;;;;;14.37;100.00;98558.63;5099962;28;20036;-72
2022/11/17 11:24:26;;;;;;;89.85;48.42;;;;;;;14.54;100.00;98560.78;5091595;28;20261;-72
2022/11/17 11:27:15;;;;;;;86.75;46.83;;;;;;;14.42;100.00;98568.66;5090146;28;20141;-72
2022/11/17 11:29:59;;;;;;;79.88;45.38;;;;;;;14.52;100.00;98562.84;5099720;28;20111;-72
2022/11/17 11:32:40;;;;;;;88.18;45.05;;;;;;;14.59;100.00;98564.47;5097293;28;20028;-72
2022/11/17 11:35:25;;;;;;;81.55;43.65;;;;;;;14.68;100.00;98568.50;5092459;28;20020;-72
2022/11/17 11:38:23;;;;;;;78.13;41.45;;;;;;;14.47;100.00;98565.34;5091032;28;20429;-72
2022/11/17 11:41:37;;;;;;;79.75;44.42;;;;;;;14.84;100.00;98567.13;5089492;28;20081;-71
2022/11/17 11:44:34;;;;;;;84.77;44.87;;;;;;;14.82;100.00;98566.53;5051861;28;20046;-72
2022/11/17 11:47:05;;;;;;;74.78;41.97;;;;;;;14.60;100.00;98568.75;5090571;28;20094;-72
2022/11/17 11:50:03;;;;;;;73.13;40.35;;;;;;;14.87;100.00;98555.22;5092151;28;20032;-72
2022/11/17 11:52:37;;;;;;;78.70;39.22;;;;;;;14.86;100.00;98535.75;5096136;28;20097;-72
2022/11/17 11:55:06;;;;;;;;;;;;;;;15.06;98.77;98548.09;5091630;28;20167;-72
2022/11/17 11:57:38;;;;;;;71.43;39.53;;;;;;;15.27;96.47;98558.34;5089984;28;20118;-72